• Join FlightAware (Why Join?)
  • Login
  • US Flag 
08:31PM EDT


 

Airport Tracker/Info


-or-


 

Live Flight TrackerFlight Track Log ✈ N717AN ✈ 07-Sep-2013 ✈ KDFW - EGLL / LHR

Flight Track Log - Related Links

Times and Time Zones

All times are in EDT time to prevent confusion due to time zone crossing. See the N717AN flight status page for this flight to view local times or setup timezone preferences in your user account.

Time Position Orientation Groundspeed Altitude Reporting Facility
EDT Latitude Longitude Course Direction KTS MPH feet Rate Location/Type
06:15PM 32.8680 -97.0290 173° South 206 237 1,600  Level FlightAware
06:15PM 32.8580 -97.0270 170° South 204 235 2,100 1,860 Climbing FlightAware
06:15PM 32.8480 -97.0240 166° South 207 238 2,300 780 Climbing FlightAware
06:16PM 32.8220 -97.0170 167° South 239 275 2,600 1,200 Climbing FlightAware
06:16PM 32.8000 -97.0070 159° South 254 292 3,200 1,980 Climbing FlightAware
06:16PM 32.7960 -97.0040 148° Southeast 252 290 3,400 2,460 Climbing FlightAware
06:16PM 32.7910 -96.9960 127° Southeast 248 285 3,700 1,860 Climbing FlightAware
06:16PM 32.7870 -96.9860 115° Southeast 253 291 3,900 1,680 Climbing FlightAware
06:16PM 32.7850 -96.9780 107° East 256 295 4,100 2,400 Climbing FlightAware
06:16PM 32.7850 -96.9720 90° East 260 299 4,300 2,400 Climbing FlightAware
06:17PM 32.7880 -96.9380 84° East 263 303 5,300 2,460 Climbing FlightAware
06:17PM 32.7910 -96.9080 83° East 264 304 6,200 2,220 Climbing FlightAware
06:17PM 32.7960 -96.8870 74° East 275 316 6,600 1,860 Climbing FlightAware
06:17PM 32.7990 -96.8800 63° Northeast 279 321 6,800 2,460 Climbing FlightAware
06:18PM 32.8060 -96.8710 47° Northeast 282 325 7,100 2,220 Climbing FlightAware
06:18PM 32.8150 -96.8640 33° Northeast 289 333 7,400 2,400 Climbing FlightAware
06:18PM 32.8290 -96.8550 28° Northeast 289 333 7,900 2,340 Climbing FlightAware
06:18PM 32.8540 -96.8460 17° North 292 336 8,700 2,340 Climbing FlightAware
06:19PM 32.8780 -96.8420 North 297 342 9,400 2,340 Climbing FlightAware
06:19PM 32.9290 -96.8410 North 303 349 10,800 1,680 Climbing FlightAware
06:20PM 32.9740 -96.8380 North 335 386 11,300 1,080 Climbing FlightAware
06:20PM 33.0210 -96.8370 North 362 417 11,900 1,920 Climbing FlightAware
06:21PM 33.0820 -96.8350 North 364 419 13,400 2,280 Climbing FlightAware
06:21PM 33.1440 -96.8330 North 374 430 14,700 1,980 Climbing FlightAware
06:22PM 33.2060 -96.8310 North 384 442 15,800 1,920 Climbing FlightAware
06:23PM 33.2610 -96.8290 North 389 448 16,900 1,980 Climbing FlightAware
06:23PM 33.3270 -96.8080 15° North 394 453 18,100 1,860 Climbing FlightAware
06:24PM 33.3880 -96.7720 26° Northeast 402 463 19,200 1,680 Climbing FlightAware
06:24PM 33.4400 -96.7400 27° Northeast 413 475 20,000 1,800 Climbing FlightAware
06:25PM 33.5030 -96.6990 28° Northeast 413 475 21,300 1,800 Climbing FlightAware
06:25PM 33.5640 -96.6580 29° Northeast 419 482 22,300 1,620 Climbing FlightAware
06:26PM 33.6170 -96.6220 29° Northeast 423 487 23,200 1,740 Climbing FlightAware
06:27PM 33.6780 -96.5810 29° Northeast 426 490 24,300 1,560 Climbing FlightAware
06:27PM 33.7450 -96.5370 29° Northeast 433 498 25,100 1,380 Climbing FlightAware
06:28PM 33.8010 -96.4990 29° Northeast 436 502 25,900 1,380 Climbing FlightAware
06:28PM 33.8680 -96.4540 29° Northeast 440 506 26,700 1,380 Climbing FlightAware
06:29PM 33.9280 -96.4130 30° Northeast 441 507 27,600 1,380 Climbing FlightAware
06:29PM 33.9880 -96.3730 29° Northeast 444 511 28,300 1,200 Climbing FlightAware
06:30PM 34.0600 -96.3240 29° Northeast 449 517 29,100 1,320 Climbing FlightAware
06:31PM 34.1180 -96.2850 29° Northeast 448 516 29,900 1,320 Climbing FlightAware
06:31PM 34.1840 -96.2390 30° Northeast 452 520 30,600 900 Climbing FlightAware
06:32PM 34.2500 -96.1950 29° Northeast 461 531 31,000 300 Climbing FlightAware
06:32PM 34.3130 -96.1520 29° Northeast 465 535 31,000  Level FlightAware
06:33PM 34.3710 -96.1120 30° Northeast 467 537 31,000  Level FlightAware
06:34PM 34.4410 -96.0640 29° Northeast 469 540 31,000  Level FlightAware
06:34PM 34.5110 -96.0160 29° Northeast 469 540 31,000  Level FlightAware
06:35PM 34.5770 -95.9700 30° Northeast 470 541 31,000  Level FlightAware
06:35PM 34.6380 -95.9280 30° Northeast 472 543 31,000  Level FlightAware
06:36PM 34.7070 -95.8810 29° Northeast 471 542 31,000  Level FlightAware
06:37PM 34.7750 -95.8340 30° Northeast 472 543 31,000  Level FlightAware
06:37PM 34.8420 -95.7850 31° Northeast 470 541 31,000  Level FlightAware
06:38PM 34.9040 -95.7270 37° Northeast 469 540 31,000  Level FlightAware
06:38PM 34.9520 -95.6690 45° Northeast 467 537 31,000  Level FlightAware
06:39PM 35.0100 -95.5970 45° Northeast 468 539 31,000  Level FlightAware
06:39PM 35.0670 -95.5290 44° Northeast 470 541 31,000  Level FlightAware
06:40PM 35.1210 -95.4650 44° Northeast 471 542 31,000  Level FlightAware
06:41PM 35.1700 -95.4080 44° Northeast 472 543 31,000  Level FlightAware
06:41PM 35.2290 -95.3360 45° Northeast 473 544 31,000  Level FlightAware
06:42PM 35.2840 -95.2710 44° Northeast 473 544 31,000  Level FlightAware
06:42PM 35.3420 -95.2010 45° Northeast 474 545 31,000  Level FlightAware
06:43PM 35.3890 -95.1440 45° Northeast 475 547 31,000  Level FlightAware
06:44PM 35.4460 -95.0750 45° Northeast 475 547 31,000  Level FlightAware
06:44PM 35.5000 -95.0090 45° Northeast 474 545 31,000  Level FlightAware
06:45PM 35.5540 -94.9440 44° Northeast 473 544 31,000  Level FlightAware
06:45PM 35.6110 -94.8750 45° Northeast 473 544 31,000  Level FlightAware
06:46PM 35.6800 -94.7910 45° Northeast 473 544 31,000  Level FlightAware
06:47PM 35.7440 -94.7130 45° Northeast 475 547 31,000  Level FlightAware
06:47PM 35.7930 -94.6530 45° Northeast 475 547 31,000  Level FlightAware
06:48PM 35.8540 -94.5780 45° Northeast 475 547 31,000  Level FlightAware
06:48PM 35.9020 -94.5190 45° Northeast 475 547 31,000  Level FlightAware
06:49PM 35.9580 -94.4500 45° Northeast 474 545 31,000  Level FlightAware
06:50PM 36.0170 -94.3780 45° Northeast 475 547 31,000  Level FlightAware
06:50PM 36.0630 -94.3200 46° Northeast 475 547 31,000  Level FlightAware
06:51PM 36.1230 -94.2460 45° Northeast 475 547 31,000  Level FlightAware
06:51PM 36.1790 -94.1760 45° Northeast 474 545 31,000  Level FlightAware
06:52PM 36.2340 -94.1080 45° Northeast 473 544 31,000  Level FlightAware
06:53PM 36.2840 -94.0460 45° Northeast 473 544 31,000  Level FlightAware
06:53PM 36.3390 -93.9770 45° Northeast 473 544 31,000  Level FlightAware
06:54PM 36.3950 -93.9070 45° Northeast 473 544 31,000  Level FlightAware
06:54PM 36.4400 -93.8500 46° Northeast 473 544 31,000  Level FlightAware
06:55PM 36.4990 -93.7760 45° Northeast 472 543 31,000  Level FlightAware
06:55PM 36.5550 -93.7050 46° Northeast 473 544 31,000  Level FlightAware
06:56PM 36.6100 -93.6360 45° Northeast 470 541 31,000  Level FlightAware
06:57PM 36.6620 -93.5700 46° Northeast 470 541 31,000  Level FlightAware
06:57PM 36.7160 -93.5010 46° Northeast 470 541 31,000 360 Level FlightAware
06:58PM 36.7710 -93.4310 46° Northeast 472 543 31,500 1,020 Climbing FlightAware
06:58PM 36.8180 -93.3720 45° Northeast 469 540 32,200 1,320 Climbing FlightAware
06:59PM 36.8740 -93.3010 45° Northeast 467 537 33,000 600 Climbing FlightAware
07:00PM 36.9290 -93.2300 46° Northeast 466 536 33,000  Level FlightAware
07:00PM 36.9830 -93.1610 46° Northeast 467 537 33,000  Level FlightAware
07:01PM 37.0300 -93.1000 46° Northeast 467 537 33,000  Level FlightAware
07:01PM 37.0820 -93.0330 46° Northeast 466 536 33,000  Level FlightAware
07:02PM 37.1360 -92.9630 46° Northeast 467 537 33,000  Level FlightAware
07:02PM 37.1930 -92.8900 46° Northeast 466 536 33,000  Level FlightAware
07:03PM 37.2410 -92.8270 46° Northeast 465 535 33,000  Level FlightAware
07:04PM 37.2940 -92.7580 46° Northeast 463 533 33,000  Level FlightAware
07:04PM 37.3480 -92.6880 46° Northeast 463 533 33,000  Level FlightAware
07:05PM 37.3980 -92.6230 46° Northeast 461 531 33,000  Level FlightAware
07:05PM 37.4520 -92.5530 46° Northeast 461 531 33,000  Level FlightAware
07:06PM 37.4990 -92.4920 46° Northeast 460 529 33,000  Level FlightAware
07:07PM 37.5520 -92.4210 47° Northeast 460 529 33,000  Level FlightAware
07:07PM 37.6070 -92.3500 46° Northeast 461 531 33,000  Level FlightAware
07:08PM 37.6530 -92.2890 46° Northeast 461 531 33,000  Level FlightAware
07:08PM 37.7080 -92.2160 46° Northeast 461 531 33,000  Level FlightAware
07:09PM 37.7590 -92.1490 46° Northeast 461 531 33,000  Level FlightAware
07:09PM 37.8070 -92.0850 46° Northeast 461 531 33,000  Level FlightAware
07:10PM 37.8590 -92.0160 46° Northeast 463 533 33,000  Level FlightAware
07:11PM 37.9260 -91.9260 47° Northeast 462 532 33,000  Level FlightAware
07:11PM 37.9750 -91.8610 46° Northeast 461 531 33,000  Level FlightAware
07:12PM 38.0250 -91.7940 47° Northeast 461 531 33,000  Level FlightAware
07:12PM 38.0770 -91.7240 47° Northeast 464 534 33,000  Level FlightAware
07:13PM 38.1270 -91.6570 46° Northeast 464 534 33,000  Level FlightAware
07:14PM 38.1820 -91.5830 47° Northeast 464 534 33,000  Level FlightAware
07:14PM 38.2330 -91.5140 47° Northeast 465 535 33,000  Level FlightAware
07:15PM 38.2840 -91.4440 47° Northeast 465 535 33,000  Level FlightAware
07:15PM 38.3350 -91.3760 46° Northeast 465 535 33,000  Level FlightAware
07:16PM 38.3870 -91.3050 47° Northeast 466 536 33,000  Level FlightAware
07:17PM 38.4370 -91.2360 47° Northeast 466 536 33,000  Level FlightAware
07:17PM 38.4880 -91.1670 47° Northeast 466 536 33,000  Level FlightAware
07:18PM 38.5420 -91.0930 47° Northeast 467 537 33,000  Level FlightAware
07:18PM 38.5970 -91.0180 47° Northeast 468 539 33,000  Level FlightAware
07:19PM 38.6410 -90.9570 47° Northeast 469 540 33,000  Level FlightAware
07:19PM 38.6940 -90.8840 47° Northeast 471 542 33,000  Level FlightAware
07:20PM 38.7490 -90.8080 47° Northeast 473 544 33,000  Level FlightAware
07:21PM 38.8010 -90.7360 47° Northeast 473 544 33,000  Level FlightAware
07:21PM 38.8500 -90.6680 47° Northeast 472 543 33,000  Level FlightAware
07:22PM 38.9020 -90.5960 47° Northeast 472 543 33,000  Level FlightAware
07:22PM 38.9570 -90.5180 48° Northeast 472 543 33,000  Level FlightAware
07:23PM 39.0050 -90.4520 47° Northeast 472 543 33,000  Level FlightAware
07:24PM 39.0540 -90.3830 48° Northeast 472 543 33,000  Level FlightAware
07:24PM 39.1290 -90.2780 47° Northeast 474 545 33,000  Level FlightAware
07:25PM 39.1830 -90.2010 48° Northeast 473 544 33,000  Level FlightAware
07:26PM 39.2350 -90.1290 47° Northeast 474 545 33,000  Level FlightAware
07:26PM 39.2880 -90.0540 48° Northeast 477 549 33,000  Level FlightAware
07:27PM 39.3360 -89.9860 48° Northeast 478 550 33,000  Level FlightAware
07:27PM 39.3900 -89.9090 48° Northeast 479 551 33,000  Level FlightAware
07:28PM 39.4440 -89.8310 48° Northeast 478 550 33,000  Level FlightAware
07:28PM 39.4940 -89.7610 47° Northeast 479 551 33,000  Level FlightAware
07:29PM 39.5450 -89.6870 48° Northeast 480 552 33,000  Level FlightAware
07:30PM 39.5980 -89.6110 48° Northeast 482 555 33,000  Level FlightAware
07:30PM 39.6440 -89.5450 48° Northeast 482 555 33,000  Level FlightAware
07:31PM 39.7040 -89.4590 48° Northeast 483 556 33,000  Level FlightAware
07:31PM 39.7520 -89.3890 48° Northeast 483 556 33,000  Level FlightAware
07:32PM 39.8070 -89.3090 48° Northeast 482 555 33,000  Level FlightAware
07:33PM 39.8610 -89.2310 48° Northeast 480 552 33,000  Level FlightAware
07:33PM 39.9120 -89.1570 48° Northeast 480 552 33,000  Level FlightAware
07:34PM 39.9630 -89.0810 49° Northeast 481 554 33,000  Level FlightAware
07:34PM 40.0160 -89.0030 48° Northeast 480 552 33,000  Level FlightAware
07:35PM 40.0650 -88.9320 48° Northeast 481 554 33,000  Level FlightAware
07:35PM 40.1180 -88.8540 48° Northeast 483 556 33,000  Level FlightAware
07:36PM 40.1690 -88.7790 48° Northeast 483 556 33,000  Level FlightAware
07:37PM 40.2210 -88.7020 48° Northeast 483 556 33,000  Level FlightAware
07:37PM 40.2740 -88.6230 49° Northeast 481 554 33,000  Level FlightAware
07:38PM 40.3270 -88.5440 49° Northeast 481 554 33,000  Level FlightAware
07:38PM 40.3780 -88.4690 48° Northeast 479 551 33,000  Level FlightAware
07:39PM 40.4260 -88.3970 49° Northeast 479 551 33,000  Level FlightAware
07:40PM 40.4770 -88.3200 49° Northeast 479 551 33,000  Level FlightAware
07:40PM 40.5310 -88.2400 48° Northeast 479 551 33,000  Level FlightAware
07:41PM 40.5780 -88.1690 49° Northeast 480 552 33,000  Level FlightAware
07:41PM 40.6310 -88.0890 49° Northeast 482 555 33,000  Level FlightAware
07:42PM 40.6830 -88.0090 49° Northeast 482 555 33,000  Level FlightAware
07:42PM 40.7290 -87.9400 49° Northeast 482 555 33,000  Level FlightAware
07:43PM 40.7820 -87.8590 49° Northeast 484 557 33,000  Level FlightAware
07:44PM 40.8390 -87.7730 49° Northeast 484 557 33,000  Level FlightAware
07:44PM 40.8910 -87.6930 49° Northeast 484 557 33,000  Level FlightAware
07:45PM 40.9380 -87.6210 49° Northeast 483 556 33,000  Level FlightAware
07:45PM 40.9900 -87.5410 49° Northeast 483 556 33,000  Level FlightAware
07:46PM 41.0430 -87.4600 49° Northeast 482 555 33,000  Level FlightAware
07:47PM 41.0950 -87.3790 50° Northeast 480 552 33,000  Level FlightAware
07:47PM 41.1460 -87.3000 49° Northeast 480 552 33,000  Level FlightAware
07:48PM 41.1930 -87.2270 49° Northeast 480 552 33,000  Level FlightAware
07:48PM 41.2450 -87.1460 49° Northeast 480 552 33,000  Level FlightAware
07:49PM 41.2970 -87.0650 49° Northeast 480 552 33,000  Level FlightAware
07:49PM 41.3420 -86.9950 49° Northeast 481 554 33,000  Level FlightAware
07:50PM 41.3940 -86.9130 50° Northeast 483 556 33,000  Level FlightAware
07:51PM 41.4460 -86.8310 50° Northeast 487 560 33,000  Level FlightAware
07:51PM 41.4990 -86.7480 50° Northeast 488 562 33,000  Level FlightAware
07:52PM 41.5440 -86.6770 50° Northeast 489 563 33,000  Level FlightAware
07:52PM 41.5970 -86.5910 50° Northeast 491 565 33,000  Level FlightAware
07:53PM 41.6510 -86.5070 49° Northeast 491 565 33,000  Level FlightAware
07:54PM 41.7000 -86.4280 50° Northeast 491 565 33,000  Level FlightAware
07:54PM 41.7480 -86.3520 50° Northeast 492 566 33,000  Level FlightAware
07:55PM 41.8000 -86.2630 52° Northeast 497 572 33,000  Level FlightAware
07:55PM 41.8410 -86.1740 58° Northeast 499 574 33,000  Level FlightAware
07:56PM 41.8830 -86.0810 59° Northeast 501 577 33,000  Level FlightAware
07:56PM 41.9250 -85.9910 58° Northeast 500 575 33,000  Level FlightAware
07:57PM 41.9720 -85.8950 57° Northeast 501 577 33,000  Level FlightAware
07:58PM 42.0130 -85.8090 57° Northeast 500 575 33,000  Level FlightAware
07:58PM 42.0570 -85.7180 57° Northeast 500 575 33,000  Level FlightAware
07:59PM 42.1020 -85.6240 57° Northeast 499 574 33,000  Level FlightAware
07:59PM 42.1480 -85.5270 57° Northeast 500 575 33,000  Level FlightAware
08:00PM 42.2111 -85.4003 57° Northeast 505 581 33,000  Level Cleveland Center
08:01PM 42.2864 -85.2431 57° Northeast 505 581 33,000  Level Cleveland Center
08:02PM 42.3594 -85.0853 58° Northeast 500 575 33,000  Level Cleveland Center
08:03PM 42.4322 -84.9272 58° Northeast 500 575 33,000  Level Cleveland Center
08:04PM 42.5089 -84.7747 56° Northeast 495 570 33,000  Level Cleveland Center
08:05PM 42.5919 -84.6111 55° Northeast 485 558 33,000  Level Cleveland Center
08:06PM 42.6525 -84.4878 56° Northeast 485 558 33,000  Level Cleveland Center
08:07PM 42.7442 -84.3011 56° Northeast 485 558 33,000  Level Cleveland Center
08:08PM 42.8131 -84.1667 55° Northeast 491 565 33,000  Level Cleveland Center
08:09PM 42.9047 -84.0300 47° Northeast 486 559 33,000  Level Cleveland Center
08:10PM 42.9942 -83.8958 48° Northeast 480 552 33,000  Level Cleveland Center
08:11PM 43.0794 -83.7556 50° Northeast 480 552 33,000  Level Cleveland Center
08:12PM 43.1400 -83.5906 63° Northeast 475 547 33,000  Level Cleveland Center
08:13PM 43.1964 -83.4169 66° East 480 552 33,000  Level Cleveland Center
08:14PM 43.2467 -83.2394 69° East 490 564 33,000  Level Cleveland Center
08:15PM 43.2942 -83.0619 70° East 496 571 33,000  Level Cleveland Center
08:20PM 43.5570 -82.2010 70° East 494 568 33,000  Level FlightAware
08:21PM 43.6030 -82.1050 56° Northeast 493 567 33,000  Level FlightAware
08:22PM 43.6620 -81.9850 56° Northeast 494 568 33,000  Level FlightAware
08:22PM 43.7190 -81.8690 56° Northeast 496 571 33,000  Level FlightAware
08:23PM 43.7620 -81.7810 56° Northeast 495 570 33,000  Level FlightAware
08:23PM 43.8060 -81.6900 56° Northeast 497 572 33,000  Level FlightAware
08:24PM 43.8520 -81.5960 56° Northeast 498 573 33,000  Level FlightAware
08:25PM 43.8990 -81.4980 56° Northeast 500 575 33,000  Level FlightAware
08:25PM 43.9440 -81.4050 56° Northeast 501 577 33,000  Level FlightAware
08:26PM 43.9880 -81.3130 56° Northeast 502 578 33,000  Level FlightAware
08:26PM 44.0340 -81.2180 56° Northeast 503 579 33,000  Level FlightAware
08:27PM 44.0760 -81.1290 57° Northeast 502 578 33,000  Level FlightAware
08:27PM 44.1230 -81.0310 56° Northeast 505 581 33,000  Level FlightAware
08:28PM 44.1700 -80.9340 56° Northeast 507 583 33,000  Level FlightAware
08:29PM 44.2150 -80.8380 57° Northeast 509 586 33,000  Level FlightAware
08:29PM 44.2590 -80.7440 57° Northeast 510 587 33,000  Level FlightAware
08:30PM 44.3050 -80.6470 56° Northeast 514 592 33,000  Level FlightAware
08:30PM 44.3500 -80.5510 57° Northeast 517 595 33,000  Level FlightAware
08:31PM 44.3960 -80.4530 57° Northeast 519 597 33,000  Level FlightAware
08:32PM 44.4410 -80.3550 57° Northeast 520 598 33,000  Level FlightAware
08:32PM 44.4880 -80.2540 57° Northeast 522 601 33,000  Level FlightAware
08:33PM 44.5330 -80.1570 57° Northeast 523 602 33,000  Level FlightAware
08:33PM 44.5800 -80.0540 57° Northeast 524 603 33,000  Level FlightAware
08:34PM 44.6260 -79.9550 57° Northeast 524 603 33,000  Level FlightAware
08:34PM 44.6710 -79.8550 58° Northeast 523 602 33,000  Level FlightAware
08:35PM 44.7170 -79.7560 57° Northeast 523 602 33,000  Level FlightAware
08:36PM 44.7630 -79.6560 57° Northeast 522 601 33,000  Level FlightAware
08:36PM 44.8080 -79.5570 57° Northeast 522 601 33,000  Level FlightAware
08:37PM 44.8540 -79.4540 58° Northeast 522 601 33,000  Level FlightAware
08:37PM 44.8990 -79.3540 58° Northeast 520 598 33,000  Level FlightAware
08:38PM 44.9400 -79.2630 58° Northeast 519 597 33,000  Level FlightAware
08:39PM 44.9890 -79.1540 58° Northeast 519 597 33,000  Level FlightAware
08:39PM 45.0330 -79.0540 58° Northeast 520 598 33,000  Level FlightAware
08:40PM 45.0750 -78.9610 57° Northeast 521 600 33,000  Level FlightAware
08:40PM 45.1260 -78.8440 58° Northeast 521 600 33,000  Level FlightAware
08:41PM 45.1700 -78.7440 58° Northeast 521 600 33,000  Level FlightAware
08:42PM 45.2250 -78.6200 58° Northeast 521 600 33,000  Level FlightAware
08:42PM 45.2630 -78.5340 58° Northeast 522 601 33,000  Level FlightAware
08:43PM 45.3070 -78.4320 58° Northeast 521 600 33,000  Level FlightAware
08:43PM 45.3540 -78.3250 58° Northeast 522 601 33,000  Level FlightAware
08:44PM 45.3940 -78.2320 58° Northeast 522 601 33,000  Level FlightAware
08:44PM 45.4390 -78.1270 59° Northeast 523 602 33,000  Level FlightAware
08:45PM 45.4910 -78.0060 58° Northeast 526 605 33,000  Level FlightAware
08:46PM 45.5290 -77.9070 61° Northeast 533 613 33,000  Level FlightAware
08:46PM 45.5490 -77.8010 75° East 549 632 33,000  Level FlightAware
08:47PM 45.5650 -77.6650 80° East 552 635 33,000  Level FlightAware
08:47PM 45.5790 -77.5340 81° East 553 636 33,000  Level FlightAware
08:48PM 45.5980 -77.3670 81° East 552 635 33,000  Level FlightAware
08:49PM 45.6110 -77.2600 80° East 552 635 33,000  Level FlightAware
08:49PM 45.6250 -77.1430 80° East 553 636 33,000  Level FlightAware
08:50PM 45.6410 -77.0090 80° East 554 638 33,000  Level FlightAware
08:50PM 45.6570 -76.8800 80° East 554 638 33,000  Level FlightAware
08:51PM 45.6730 -76.7580 79° East 554 638 33,000  Level FlightAware
08:52PM 45.6890 -76.6330 80° East 555 639 33,000  Level FlightAware
08:52PM 45.7120 -76.5070 75° East 549 632 33,000  Level FlightAware
08:53PM 45.7510 -76.3980 63° Northeast 540 621 33,000  Level FlightAware
08:53PM 45.8040 -76.2940 54° Northeast 533 613 33,000  Level FlightAware
08:54PM 45.8550 -76.1970 53° Northeast 535 616 33,000  Level FlightAware
08:55PM 45.9020 -76.1070 53° Northeast 537 618 33,000  Level FlightAware
08:55PM 45.9660 -75.9800 54° Northeast 538 619 33,000  Level FlightAware
08:56PM 46.0130 -75.8850 55° Northeast 539 620 33,000  Level FlightAware
08:56PM 46.0640 -75.7840 54° Northeast 540 621 33,000  Level FlightAware
08:57PM 46.1160 -75.6820 54° Northeast 539 620 33,000  Level FlightAware
08:57PM 46.1680 -75.5830 53° Northeast 542 624 33,000  Level FlightAware
08:58PM 46.2200 -75.4830 53° Northeast 541 623 33,000  Level FlightAware
08:59PM 46.2720 -75.3820 53° Northeast 539 620 33,000  Level FlightAware
08:59PM 46.3250 -75.2790 53° Northeast 537 618 33,000  Level FlightAware
09:00PM 46.3760 -75.1780 54° Northeast 537 618 33,000  Level FlightAware
09:00PM 46.4290 -75.0760 53° Northeast 538 619 33,000  Level FlightAware
09:01PM 46.4790 -74.9760 54° Northeast 538 619 33,000  Level FlightAware
09:02PM 46.5310 -74.8740 53° Northeast 537 618 33,000  Level FlightAware
09:02PM 46.5800 -74.7760 54° Northeast 538 619 33,000  Level FlightAware
09:03PM 46.6330 -74.6710 54° Northeast 539 620 33,000  Level FlightAware
09:03PM 46.6850 -74.5670 54° Northeast 540 621 33,000  Level FlightAware
09:04PM 46.7370 -74.4630 54° Northeast 541 623 33,000  Level FlightAware
09:04PM 46.7790 -74.3780 54° Northeast 542 624 33,000  Level FlightAware
09:05PM 46.8430 -74.2480 54° Northeast 543 625 33,000  Level FlightAware
09:06PM 46.8800 -74.1730 54° Northeast 541 623 33,000  Level FlightAware
09:06PM 46.9440 -74.0430 54° Northeast 538 619 33,000  Level FlightAware
09:07PM 46.9920 -73.9450 54° Northeast 538 619 33,000  Level FlightAware
09:07PM 47.0430 -73.8400 54° Northeast 539 620 33,000  Level FlightAware
09:08PM 47.0940 -73.7340 55° Northeast 539 620 33,000  Level FlightAware
09:09PM 47.1440 -73.6320 54° Northeast 539 620 33,000  Level FlightAware
09:09PM 47.1950 -73.5250 55° Northeast 540 621 33,000  Level FlightAware
09:10PM 47.2470 -73.4170 55° Northeast 541 623 33,000  Level FlightAware
09:10PM 47.2980 -73.3110 55° Northeast 542 624 33,000  Level FlightAware
09:11PM 47.3270 -73.2490 55° Northeast 542 624 33,000  Level FlightAware
09:11PM 47.3930 -73.1100 55° Northeast 550 633 33,000  Level FlightAware
09:12PM 47.4440 -73.0030 55° Northeast 550 633 33,000  Level FlightAware
09:13PM 47.4950 -72.8950 55° Northeast 551 634 33,000  Level FlightAware
09:13PM 47.5450 -72.7880 55° Northeast 553 636 33,000  Level FlightAware
09:14PM 47.5970 -72.6770 55° Northeast 554 638 33,000  Level FlightAware
09:14PM 47.6470 -72.5690 55° Northeast 555 639 33,000  Level FlightAware
09:15PM 47.6980 -72.4600 55° Northeast 555 639 33,000  Level FlightAware
09:16PM 47.7480 -72.3500 56° Northeast 554 638 33,000  Level FlightAware
09:16PM 47.7980 -72.2420 55° Northeast 555 639 33,000  Level FlightAware
09:17PM 47.8490 -72.1300 56° Northeast 557 641 33,000  Level FlightAware
09:17PM 47.8980 -72.0220 56° Northeast 557 641 33,000  Level FlightAware
09:18PM 47.9500 -71.9100 55° Northeast 556 640 33,000  Level FlightAware
09:18PM 48.0000 -71.7990 56° Northeast 555 639 33,000  Level FlightAware
09:19PM 48.0500 -71.6880 56° Northeast 555 639 33,000  Level FlightAware
09:20PM 48.1000 -71.5770 56° Northeast 554 638 33,000  Level FlightAware
09:20PM 48.1490 -71.4660 56° Northeast 554 638 33,000  Level FlightAware
09:21PM 48.1980 -71.3560 56° Northeast 554 638 33,000  Level FlightAware
09:21PM 48.2470 -71.2450 56° Northeast 554 638 33,000  Level FlightAware
09:22PM 48.2910 -71.1460 56° Northeast 554 638 33,000  Level FlightAware
09:22PM 48.3400 -71.0330 57° Northeast 554 638 33,000  Level FlightAware
09:23PM 48.3890 -70.9220 56° Northeast 554 638 33,000  Level FlightAware
09:24PM 48.4430 -70.7980 57° Northeast 555 639 33,000  Level FlightAware
09:24PM 48.4910 -70.6870 57° Northeast 555 639 33,000  Level FlightAware
09:25PM 48.5350 -70.5860 57° Northeast 556 640 33,000  Level FlightAware
09:25PM 48.5870 -70.4660 57° Northeast 556 640 33,000  Level FlightAware
09:26PM 48.6360 -70.3520 57° Northeast 557 641 33,000  Level FlightAware
09:27PM 48.6880 -70.2290 57° Northeast 557 641 33,000  Level FlightAware
09:27PM 48.7360 -70.1170 57° Northeast 557 641 33,000  Level FlightAware
09:28PM 48.7830 -70.0060 57° Northeast 557 641 33,000  Level FlightAware
09:29PM 48.8470 -69.8550 57° Northeast 558 642 33,000  Level FlightAware
09:29PM 48.9150 -69.6940 57° Northeast 558 642 33,000  Level FlightAware
09:30PM 48.9580 -69.5930 57° Northeast 558 642 33,000  Level FlightAware
09:31PM 49.0010 -69.4920 57° Northeast 558 642 33,000  Level FlightAware
09:31PM 49.0440 -69.3910 57° Northeast 558 642 33,000  Level FlightAware
09:32PM 49.0870 -69.2900 57° Northeast 558 642 33,000  Level FlightAware
09:32PM 49.1270 -69.1940 57° Northeast 558 642 33,000  Level FlightAware
09:33PM 49.1700 -69.0930 57° Northeast 558 642 33,000  Level FlightAware
09:34PM 49.2140 -68.9890 57° Northeast 558 642 33,000  Level FlightAware
09:34PM 49.2570 -68.8870 57° Northeast 558 642 33,000  Level FlightAware
09:35PM 49.3000 -68.7860 57° Northeast 558 642 33,000  Level FlightAware
09:35PM 49.3430 -68.6840 57° Northeast 558 642 33,000  Level FlightAware
09:36PM 49.3860 -68.5820 57° Northeast 558 642 33,000  Level FlightAware
09:37PM 49.4310 -68.4780 56° Northeast 558 642 33,000  Level FlightAware
09:37PM 49.4590 -68.4100 58° Northeast 558 642 33,000  Level FlightAware
09:38PM 49.5020 -68.3080 57° Northeast 558 642 33,000  Level FlightAware
09:38PM 49.5450 -68.2060 57° Northeast 558 642 33,000  Level FlightAware
09:39PM 49.5900 -68.1010 57° Northeast 558 642 33,000  Level FlightAware
09:40PM 49.7500 -67.6000 57° Northeast 560 644 33,000  Level Gander Center
09:41PM 49.8167 -67.3833 64° Northeast 560 644 33,000  Level Gander Center
09:42PM 49.9000 -67.1833 57° Northeast 570 656 33,000  Level Gander Center
09:43PM 49.9833 -66.9500 61° Northeast 570 656 33,000  Level Gander Center
09:44PM 50.0500 -66.7500 63° Northeast 570 656 33,000  Level Gander Center
09:45PM 50.1500 -66.5333 54° Northeast 570 656 33,000  Level Gander Center
09:46PM 50.2333 -66.3333 57° Northeast 570 656 33,000  Level Gander Center
09:47PM 50.3000 -66.1000 66° East 570 656 33,000  Level Gander Center
09:48PM 50.3833 -65.8667 61° Northeast 570 656 33,000  Level Gander Center
09:49PM 50.4500 -65.6667 62° Northeast 570 656 33,000  Level Gander Center
09:50PM 50.5500 -65.4333 56° Northeast 570 656 33,000  Level Gander Center
09:51PM 50.6167 -65.2333 62° Northeast 570 656 33,000  Level Gander Center
09:52PM 50.7000 -65.0333 57° Northeast 570 656 33,000  Level Gander Center
09:53PM 50.7667 -64.8000 66° East 570 656 33,000  Level Gander Center
09:54PM 50.8333 -64.6000 62° Northeast 570 656 33,000  Level Gander Center
09:55PM 50.9167 -64.3667 60° Northeast 570 656 33,000  Level Gander Center
09:56PM 50.9833 -64.1500 64° Northeast 570 656 33,000  Level Gander Center
09:57PM 51.0833 -63.9167 56° Northeast 570 656 33,000  Level Gander Center
09:58PM 51.1500 -63.6833 65° Northeast 570 656 33,000  Level Gander Center
09:59PM 51.2167 -63.4500 65° Northeast 570 656 33,000  Level Gander Center
10:00PM 51.2833 -63.2333 64° Northeast 570 656 33,000  Level Gander Center
10:01PM 51.3667 -63.0167 58° Northeast 580 667 33,000  Level Gander Center
10:02PM 51.4333 -62.7833 65° Northeast 570 656 33,000  Level Gander Center
10:03PM 51.5000 -62.5500 65° Northeast 580 667 33,000  Level Gander Center
10:04PM 51.5833 -62.3000 62° Northeast 570 656 33,000  Level Gander Center
10:05PM 51.6500 -62.0833 64° Northeast 580 667 33,000  Level Gander Center
10:06PM 51.7167 -61.8833 62° Northeast 570 656 33,000  Level Gander Center
10:07PM 51.7833 -61.6333 67° East 570 656 33,000  Level Gander Center
10:08PM 51.8500 -61.3833 67° East 580 667 33,000  Level Gander Center
10:09PM 51.9333 -61.1500 60° Northeast 570 656 33,000  Level Gander Center
10:10PM 52.0000 -60.9333 63° Northeast 570 656 33,000  Level Gander Center
10:11PM 52.0667 -60.6833 66° East 570 656 33,000  Level Gander Center
10:12PM 52.1333 -60.4667 63° Northeast 580 667 33,000 -540 Level Gander Center
10:13PM 52.2333 -60.2167 57° Northeast 580 667 32,000 -540 Descending Gander Center
10:14PM 52.3000 -60.0000 63° Northeast 580 667 32,000  Level Gander Center
10:15PM 52.3833 -59.7833 58° Northeast 580 667 32,000  Level Gander Center
10:16PM 52.4667 -59.5500 60° Northeast 580 667 32,000  Level Gander Center
10:17PM 52.5500 -59.3000 61° Northeast 580 667 32,000  Level Gander Center
10:18PM 52.6167 -59.0833 63° Northeast 580 667 32,000  Level Gander Center
10:19PM 52.6833 -58.8500 65° Northeast 580 667 32,000  Level Gander Center
10:20PM 52.7667 -58.6000 61° Northeast 580 667 32,000  Level Gander Center
10:21PM 52.8500 -58.3833 57° Northeast 580 667 32,000  Level Gander Center
10:22PM 52.9167 -58.1167 67° East 580 667 32,000  Level Gander Center
10:23PM 53.0000 -57.9000 57° Northeast 580 667 32,000  Level Gander Center
10:24PM 53.0667 -57.6333 67° East 580 667 32,000  Level Gander Center
10:25PM 53.1333 -57.4000 64° Northeast 580 667 32,000  Level Gander Center
10:26PM 53.2333 -57.1500 56° Northeast 580 667 32,000  Level Gander Center
10:27PM 53.2833 -56.9167 70° East 580 667 32,000  Level Gander Center
10:28PM 53.3500 -56.6500 67° East 580 667 32,000  Level Gander Center
10:29PM 53.4333 -56.4333 57° Northeast 580 667 32,000  Level Gander Center
10:30PM 53.5000 -56.1667 67° East 580 667 32,000  Level Gander Center
10:31PM 53.5833 -55.9333 59° Northeast 580 667 32,000  Level Gander Center
10:32PM 53.6333 -55.7000 70° East 580 667 32,000  Level Gander Center
10:33PM 53.7000 -55.4333 67° East 580 667 32,000  Level Gander Center
10:34PM 53.7833 -55.2000 59° Northeast 580 667 32,000  Level Gander Center
10:35PM 53.8500 -54.9500 66° East 580 667 32,000  Level Gander Center
10:36PM 53.9167 -54.7167 64° Northeast 580 667 32,000  Level Gander Center
10:37PM 53.9667 -54.4500 72° East 580 667 32,000  Level Gander Center
10:38PM 54.0500 -54.2167 59° Northeast 580 667 32,000  Level Gander Center
10:39PM 54.1000 -53.9500 72° East 590 679 32,000  Level Gander Center
10:40PM 54.1667 -53.6833 67° East 590 679 32,000  Level Gander Center
10:41PM 54.2333 -53.4167 67° East 590 679 32,000  Level Gander Center
10:42PM 54.2833 -53.1667 71° East 590 679 32,000  Level Gander Center
10:43PM 54.3500 -52.9000 67° East 580 667 32,000  Level Gander Center
10:43PM 54.3500 -52.9000 67° East 590 679 32,000  Level Gander Center
10:44PM 54.4167 -52.6500 65° Northeast 590 679 32,000  Level Gander Center
10:45PM 54.4667 -52.3833 72° East 590 679 32,000  Level Gander Center
10:46PM 54.5333 -52.1000 68° East 590 679 32,000  Level Gander Center
10:47PM 54.5833 -51.9000 67° East 590 679 32,000  Level Gander Center
10:48PM 54.6500 -51.6500 65° Northeast 590 679 32,000  Level Gander Center
10:49PM 54.6833 -51.3667 78° East 590 679 32,000  Level Gander Center
10:50PM 54.7500 -51.1000 66° East 590 679 32,000  Level Gander Center
10:52PM 54.8833 -50.5000 69° East 590 679 32,000  Level Gander Center
10:53PM 54.9167 -50.3000 74° East 590 679 32,000  Level Gander Center
10:55PM 55.0181 -49.8739 76° East  Level FlightAware Approximate
11:02PM 55.2468 -48.1837 76° East  Level FlightAware Approximate
11:03PM 55.2775 -47.9407 77° East  Level FlightAware Approximate
11:04PM 55.3078 -47.6973 78° East  Level FlightAware Approximate
11:05PM 55.3376 -47.4536 78° East  Level FlightAware Approximate
11:06PM 55.3669 -47.2095 78° East  Level FlightAware Approximate
11:07PM 55.3957 -46.9650 78° East  Level FlightAware Approximate
11:08PM 55.4240 -46.7202 78° East  Level FlightAware Approximate
11:09PM 55.4519 -46.4750 79° East  Level FlightAware Approximate
11:10PM 55.4792 -46.2295 79° East  Level FlightAware Approximate
11:11PM 55.5061 -45.9837 79° East  Level FlightAware Approximate
11:12PM 55.5324 -45.7375 79° East  Level FlightAware Approximate
11:13PM 55.5583 -45.4910 79° East  Level FlightAware Approximate
11:14PM 55.5837 -45.2441 80° East  Level FlightAware Approximate
11:15PM 55.6085 -44.9970 80° East  Level FlightAware Approximate
11:16PM 55.6329 -44.7495 80° East  Level FlightAware Approximate
11:17PM 55.6568 -44.5017 80° East  Level FlightAware Approximate
11:18PM 55.6802 -44.2537 80° East  Level FlightAware Approximate
11:19PM 55.7030 -44.0053 81° East  Level FlightAware Approximate
11:20PM 55.7254 -43.7567 81° East  Level FlightAware Approximate
11:21PM 55.7473 -43.5077 81° East  Level FlightAware Approximate
11:22PM 55.7687 -43.2585 81° East  Level FlightAware Approximate
11:23PM 55.7895 -43.0090 81° East  Level FlightAware Approximate
11:24PM 55.8099 -42.7593 82° East  Level FlightAware Approximate
11:25PM 55.8297 -42.5093 82° East  Level FlightAware Approximate
11:26PM 55.8491 -42.2590 82° East  Level FlightAware Approximate
11:27PM 55.8679 -42.0085 82° East  Level FlightAware Approximate
11:28PM 55.8862 -41.7578 82° East  Level FlightAware Approximate
11:29PM 55.9041 -41.5068 83° East  Level FlightAware Approximate
11:30PM 55.9214 -41.2556 83° East  Level FlightAware Approximate
11:31PM 55.9382 -41.0037 83° East  Level FlightAware Approximate
11:32PM 55.9545 -40.7516 83° East  Level FlightAware Approximate
11:33PM 55.9703 -40.4992 84° East  Level FlightAware Approximate
11:34PM 55.9856 -40.2466 84° East  Level FlightAware Approximate
11:35PM 56.0008 -39.9941 76° East  Level FlightAware Approximate
11:36PM 56.0358 -39.7476 76° East  Level FlightAware Approximate
11:37PM 56.0702 -39.5006 76° East  Level FlightAware Approximate
11:38PM 56.1041 -39.2533 76° East  Level FlightAware Approximate
11:39PM 56.1376 -39.0055 76° East  Level FlightAware Approximate
11:40PM 56.1705 -38.7572 76° East  Level FlightAware Approximate
11:41PM 56.2030 -38.5085 77° East  Level FlightAware Approximate
11:42PM 56.2349 -38.2595 77° East  Level FlightAware Approximate
11:43PM 56.2664 -38.0100 77° East  Level FlightAware Approximate
11:44PM 56.2973 -37.7601 77° East  Level FlightAware Approximate
11:45PM 56.3278 -37.5098 78° East  Level FlightAware Approximate
11:46PM 56.3577 -37.2591 78° East  Level FlightAware Approximate
11:47PM 56.3871 -37.0080 78° East  Level FlightAware Approximate
11:48PM 56.4160 -36.7565 78° East  Level FlightAware Approximate
11:49PM 56.4444 -36.5046 78° East  Level FlightAware Approximate
11:50PM 56.4723 -36.2524 79° East  Level FlightAware Approximate
11:51PM 56.4997 -35.9998 79° East  Level FlightAware Approximate
11:52PM 56.5266 -35.7468 79° East  Level FlightAware Approximate
11:53PM 56.5530 -35.4935 79° East  Level FlightAware Approximate
11:54PM 56.5788 -35.2399 79° East  Level FlightAware Approximate
11:55PM 56.6041 -34.9859 80° East  Level FlightAware Approximate
11:56PM 56.6289 -34.7315 80° East  Level FlightAware Approximate
11:57PM 56.6532 -34.4768 80° East  Level FlightAware Approximate
11:58PM 56.6772 -34.2219 80° East  Level FlightAware Approximate
11:59PM 56.7010 -33.9667 80° East  Level FlightAware Approximate
12:00AM 56.7242 -33.7112 80° East  Level FlightAware Approximate
12:01AM 56.7469 -33.4554 81° East  Level FlightAware Approximate
12:02AM 56.7690 -33.1993 81° East  Level FlightAware Approximate
12:03AM 56.7907 -32.9429 81° East  Level FlightAware Approximate
12:04AM 56.8118 -32.6862 81° East  Level FlightAware Approximate
12:05AM 56.8324 -32.4292 82° East  Level FlightAware Approximate
12:06AM 56.8525 -32.1714 82° East  Level FlightAware Approximate
12:07AM 56.8721 -31.9134 82° East  Level FlightAware Approximate
12:08AM 56.8911 -31.6550 82° East  Level FlightAware Approximate
12:09AM 56.9096 -31.3964 82° East  Level FlightAware Approximate
12:10AM 56.9276 -31.1376 83° East  Level FlightAware Approximate
12:11AM 56.9450 -30.8785 83° East  Level FlightAware Approximate
12:12AM 56.9619 -30.6192 83° East  Level FlightAware Approximate
12:13AM 56.9782 -30.3596 83° East  Level FlightAware Approximate
12:14AM 56.9941 -30.0998 84° East  Level FlightAware Approximate
12:15AM 57.0058 -29.8393 86° East  Level FlightAware Approximate
12:16AM 57.0147 -29.5782 86° East  Level FlightAware Approximate
12:17AM 57.0231 -29.3170 87° East  Level FlightAware Approximate
12:18AM 57.0310 -29.0557 87° East  Level FlightAware Approximate
12:19AM 57.0383 -28.7943 87° East  Level FlightAware Approximate
12:20AM 57.0450 -28.5328 87° East  Level FlightAware Approximate
12:21AM 57.0513 -28.2712 87° East  Level FlightAware Approximate
12:22AM 57.0569 -28.0096 88° East  Level FlightAware Approximate
12:23AM 57.0621 -27.7478 88° East  Level FlightAware Approximate
12:24AM 57.0666 -27.4860 88° East  Level FlightAware Approximate
12:25AM 57.0707 -27.2241 88° East  Level FlightAware Approximate
12:26AM 57.0742 -26.9622 88° East  Level FlightAware Approximate
12:27AM 57.0771 -26.7002 89° East  Level FlightAware Approximate
12:28AM 57.0795 -26.4382 89° East  Level FlightAware Approximate
12:29AM 57.0814 -26.1762 89° East  Level FlightAware Approximate
12:30AM 57.0827 -25.9141 89° East  Level FlightAware Approximate
12:31AM 57.0837 -25.6520 89° East  Level FlightAware Approximate
12:32AM 57.0855 -25.3899 89° East  Level FlightAware Approximate
12:33AM 57.0867 -25.1278 89° East  Level FlightAware Approximate
12:34AM 57.0873 -24.8657 90° East  Level FlightAware Approximate
12:35AM 57.0874 -24.6036 90° East  Level FlightAware Approximate
12:36AM 57.0870 -24.3415 90° East  Level FlightAware Approximate
12:37AM 57.0860 -24.0794 90° East  Level FlightAware Approximate
12:38AM 57.0845 -23.8173 91° East  Level FlightAware Approximate
12:39AM 57.0824 -23.5553 91° East  Level FlightAware Approximate
12:40AM 57.0798 -23.2927 91° East  Level FlightAware Approximate
12:41AM 57.0766 -23.0302 91° East  Level FlightAware Approximate
12:42AM 57.0728 -22.7677 91° East  Level FlightAware Approximate
12:43AM 57.0686 -22.5053 92° East  Level FlightAware Approximate
12:44AM 57.0637 -22.2429 92° East  Level FlightAware Approximate
12:45AM 57.0584 -21.9807 92° East  Level FlightAware Approximate
12:46AM 57.0524 -21.7185 92° East  Level FlightAware Approximate
12:47AM 57.0460 -21.4564 92° East  Level FlightAware Approximate
12:48AM 57.0390 -21.1943 93° East  Level FlightAware Approximate
12:49AM 57.0314 -20.9324 93° East  Level FlightAware Approximate
12:50AM 57.0233 -20.6706 93° East  Level FlightAware Approximate
12:51AM 57.0146 -20.4089 93° East  Level FlightAware Approximate
12:52AM 57.0054 -20.1474 94° East  Level FlightAware Approximate
12:53AM 56.9749 -19.8954 114° Southeast  Level FlightAware Approximate
12:54AM 56.9170 -19.6562 114° Southeast  Level FlightAware Approximate
12:55AM 56.8587 -19.4178 114° Southeast  Level FlightAware Approximate
12:56AM 56.8000 -19.1800 114° Southeast  Level FlightAware Approximate
12:57AM 56.7408 -18.9431 114° Southeast  Level FlightAware Approximate
12:58AM 56.6811 -18.7069 115° Southeast  Level FlightAware Approximate
12:59AM 56.6209 -18.4709 115° Southeast  Level FlightAware Approximate
01:00AM 56.5602 -18.2358 115° Southeast  Level FlightAware Approximate
01:01AM 56.4991 -18.0013 115° Southeast  Level FlightAware Approximate
01:02AM 56.4375 -17.7677 115° Southeast  Level FlightAware Approximate
01:03AM 56.3756 -17.5347 116° Southeast  Level FlightAware Approximate
01:04AM 56.3131 -17.3026 116° Southeast  Level FlightAware Approximate
01:05AM 56.2503 -17.0712 116° Southeast  Level FlightAware Approximate
01:05AM 55.3110 -12.8680 116° Southeast 569 655 33,000  Level FlightAware
01:06AM 56.1870 -16.8405 116° Southeast  Level FlightAware Approximate
01:06AM 55.2700 -12.7540 122° Southeast 568 654 33,000  Level FlightAware
01:06AM 55.2180 -12.6120 123° Southeast 567 652 33,000  Level FlightAware
01:07AM 55.1710 -12.4820 122° Southeast 567 652 33,000  Level FlightAware
01:08AM 55.1140 -12.3290 123° Southeast 568 654 33,000  Level FlightAware
01:08AM 55.0710 -12.2130 123° Southeast 569 655 33,000  Level FlightAware
01:09AM 55.0200 -12.0760 123° Southeast 571 657 33,000  Level FlightAware
01:09AM 54.9640 -11.9240 123° Southeast 568 654 33,000  Level FlightAware
01:10AM 54.9060 -11.7700 123° Southeast 569 655 33,000  Level FlightAware
01:11AM 54.8620 -11.6540 123° Southeast 570 656 33,000  Level FlightAware
01:11AM 54.7960 -11.4810 123° Southeast 573 659 33,000  Level FlightAware
01:12AM 54.7450 -11.3470 123° Southeast 578 665 33,000  Level FlightAware
01:13AM 54.6920 -11.2080 123° Southeast 576 663 33,000  Level FlightAware
01:13AM 54.6410 -11.0780 124° Southeast 573 659 33,000  Level FlightAware
01:14AM 54.5890 -10.9430 124° Southeast 567 652 33,000  Level FlightAware
01:14AM 54.5380 -10.8130 124° Southeast 571 657 33,000  Level FlightAware
01:15AM 54.4860 -10.6820 124° Southeast 571 657 33,000  Level FlightAware
01:15AM 54.4350 -10.5520 124° Southeast 573 659 33,000  Level FlightAware
01:16AM 54.3820 -10.4180 124° Southeast 573 659 33,000  Level FlightAware
01:17AM 54.3310 -10.2890 124° Southeast 574 661 33,000  Level FlightAware
01:17AM 54.2770 -10.1560 125° Southeast 572 658 33,000  Level FlightAware
01:18AM 54.2250 -10.0270 125° Southeast 574 661 33,000  Level FlightAware
01:18AM 54.1710 -9.8930 125° Southeast 573 659 33,000  Level FlightAware
01:19AM 54.1210 -9.7690 124° Southeast 572 658 33,000  Level FlightAware
01:20AM 54.0650 -9.6330 125° Southeast 572 658 33,000  Level FlightAware
01:20AM 54.0120 -9.5060 125° Southeast 573 659 33,000  Level FlightAware
01:21AM 53.9660 -9.3930 125° Southeast 573 659 33,000  Level FlightAware
01:21AM 53.9180 -9.2800 126° Southeast 580 667 33,000  Level FlightAware
01:22AM 53.8580 -9.1340 125° Southeast 581 669 33,000  Level FlightAware
01:22AM 53.8040 -9.0070 126° Southeast 580 667 33,000  Level FlightAware
01:23AM 53.7490 -8.8760 125° Southeast 578 665 33,000  Level FlightAware
01:23AM 53.6982 -8.7569 125° Southeast 488 562 33,000  Level FlightAware UK
01:24AM 53.6870 -8.7310 125° Southeast 579 666 33,000  Level FlightAware
01:24AM 53.6330 -8.6020 125° Southeast 581 669 33,000  Level FlightAware
01:25AM 53.5780 -8.4740 126° Southeast 583 671 33,000  Level FlightAware
01:25AM 53.5220 -8.3470 127° Southeast 579 666 33,000 -120 Level FlightAware
01:26AM 53.4618 -8.2070 127° Southeast 492 566 32,900  Descending FlightAware UK
01:26AM 53.4650 -8.2140 127° Southeast 579 666 33,000  Climbing FlightAware
01:26AM 53.4141 -8.0968 127° Southeast 486 559 32,900  Descending FlightAware UK
01:27AM 53.4100 -8.0890 127° Southeast 578 665 33,000 120 Climbing FlightAware
01:27AM 53.3540 -7.9610 126° Southeast 581 669 33,000  Level FlightAware
01:28AM 53.2990 -7.8350 126° Southeast 583 671 33,000  Level FlightAware
01:28AM 53.2420 -7.7060 126° Southeast 589 678 33,000  Level FlightAware
01:29AM 53.1850 -7.5790 127° Southeast 589 678 33,000  Level FlightAware
01:29AM 53.1280 -7.4510 127° Southeast 582 670 33,000 -180 Level FlightAware
01:29AM 53.1245 -7.4416 127° Southeast 492 566 32,900 -240 Descending FlightAware UK
01:30AM 53.0757 -7.3333 127° Southeast 492 566 32,900 120 Level FlightAware UK
01:30AM 53.0720 -7.3250 127° Southeast 585 673 33,000 120 Climbing FlightAware
01:31AM 53.0150 -7.2000 127° Southeast 577 664 33,000  Level FlightAware
01:31AM 52.9610 -7.0800 127° Southeast 570 656 33,000  Level FlightAware
01:32AM 52.9040 -6.9560 127° Southeast 567 652 33,000  Level FlightAware
01:32AM 52.8500 -6.8380 127° Southeast 566 651 33,000  Level FlightAware
01:33AM 52.7875 -6.7009 127° Southeast 494 568 33,000  Level FlightAware UK
01:33AM 52.7780 -6.6810 127° Southeast 566 651 33,000  Level FlightAware
01:34AM 52.7210 -6.5570 127° Southeast 563 648 33,000  Level FlightAware
01:34AM 52.6700 -6.4490 128° Southeast 558 642 33,000  Level FlightAware
01:35AM 52.6150 -6.3320 128° Southeast 552 635 33,000  Level FlightAware
01:35AM 52.5570 -6.2080 128° Southeast 554 638 33,000 -120 Level FlightAware
01:36AM 52.5054 -6.0966 128° Southeast 496 571 32,900  Descending FlightAware UK
01:36AM 52.5010 -6.0880 128° Southeast 550 633 33,000 120 Climbing FlightAware
01:37AM 52.4510 -5.9830 128° Southeast 547 629 33,000  Level FlightAware
01:37AM 52.4000 -5.8750 128° Southeast 545 627 33,000  Level FlightAware
01:38AM 52.3390 -5.7480 128° Southeast 544 626 33,000  Level FlightAware
01:38AM 52.2890 -5.6290 124° Southeast 540 621 33,000  Level FlightAware
01:39AM 52.2540 -5.5200 118° Southeast 534 615 33,000  Level FlightAware
01:39AM 52.2150 -5.3810 115° Southeast 530 610 33,000  Level FlightAware
01:40AM 52.1800 -5.2540 114° Southeast 528 608 33,000 -120 Level FlightAware
01:41AM 52.1446 -5.1241 114° Southeast 496 571 32,900  Descending FlightAware UK
01:41AM 52.1440 -5.1250 114° Southeast 523 602 33,000 120 Climbing FlightAware
01:41AM 52.1110 -5.0040 114° Southeast 521 600 33,000  Level FlightAware
01:42AM 52.0760 -4.8810 115° Southeast 519 597 33,000  Level FlightAware
01:42AM 52.0400 -4.7540 115° Southeast 518 596 33,000  Level FlightAware
01:43AM 52.0080 -4.6400 114° Southeast 519 597 33,000  Level FlightAware
01:43AM 51.9777 -4.5351 115° Southeast 519 597 33,000  Level FlightAware ADS-B
01:44AM 51.9340 -4.3830 115° Southeast 519 597 33,000  Level FlightAware
01:44AM 51.9200 -4.3343 115° Southeast 519 597 33,000  Level FlightAware ADS-B
01:45AM 51.8850 -4.2131 115° Southeast 494 568 33,000  Level FlightAware UK
01:45AM 51.8650 -4.1440 115° Southeast 519 597 33,000  Level FlightAware
01:46AM 51.8308 -4.0273 115° Southeast 518 596 33,000  Level FlightAware ADS-B
01:46AM 51.7935 -3.8996 115° Southeast 496 571 33,000  Level FlightAware UK
01:46AM 51.7930 -3.8970 115° Southeast 512 589 33,000  Level FlightAware
01:47AM 51.7600 -3.7850 115° Southeast 513 590 33,000  Level FlightAware
01:47AM 51.7569 -3.7753 115° Southeast 492 566 33,000 -240 Level FlightAware UK
01:48AM 51.7263 -3.6722 115° Southeast 496 571 32,900  Descending FlightAware UK
01:48AM 51.7220 -3.6560 115° Southeast 511 588 33,000 120 Climbing FlightAware
01:48AM 51.6860 -3.5360 116° Southeast 510 587 33,000  Level FlightAware
01:49AM 51.6490 -3.4140 116° Southeast 508 585 33,000 -900 Level FlightAware
01:49AM 51.6176 -3.2998 114° Southeast 501 577 32,000 -2,040 Descending FlightAware ADS-B
01:50AM 51.6063 -3.2445 108° East 498 573 31,400 -2,460 Descending FlightAware ADS-B
01:50AM 51.6022 -3.2199 105° East 498 573 31,100 -1,860 Descending FlightAware ADS-B
01:50AM 51.5849 -3.0956 103° East 484 557 30,100 -1,860 Descending FlightAware ADS-B
01:51AM 51.5701 -2.9821 102° East 473 544 29,000 -1,620 Descending FlightAware ADS-B
01:52AM 51.5534 -2.8551 102° East 467 537 28,200 -1,500 Descending FlightAware ADS-B
01:52AM 51.5461 -2.8001 102° East 414 476 27,600 -2,640 Descending FlightAware ADS-B
01:52AM 51.5397 -2.7014 96° East 402 463 26,000 -2,520 Descending FlightAware ADS-B
01:53AM 51.5368 -2.6109 93° East 394 453 25,000 -1,680 Descending FlightAware ADS-B
01:53AM 51.5342 -2.5234 93° East 387 445 24,300 -1,560 Descending FlightAware ADS-B
01:54AM 51.5318 -2.4351 92° East 383 441 23,400 -1,800 Descending FlightAware ADS-B
01:54AM 51.5294 -2.3504 93° East 379 436 22,500 -1,740 Descending FlightAware ADS-B
01:55AM 51.5268 -2.2577 93° East 374 430 21,600 -1,740 Descending FlightAware ADS-B
01:55AM 51.5242 -2.1721 93° East 370 426 20,700 -1,740 Descending FlightAware ADS-B
01:56AM 51.5213 -2.0830 93° East 362 417 19,800 -1,920 Descending FlightAware ADS-B
01:57AM 51.5183 -2.0024 93° East 359 413 18,700 -2,040 Descending FlightAware ADS-B
01:57AM 51.5148 -1.9197 94° East 361 415 17,700 -1,500 Descending FlightAware ADS-B
01:58AM 51.5085 -1.8395 97° East 354 407 17,200 -1,260 Descending FlightAware ADS-B
01:58AM 51.5012 -1.7583 98° East 349 402 16,400 -1,560 Descending FlightAware ADS-B
01:59AM 51.4940 -1.6811 98° East 345 397 15,600 -1,500 Descending FlightAware ADS-B
01:59AM 51.4868 -1.6048 99° East 341 392 14,900 -1,440 Descending FlightAware ADS-B
02:00AM 51.4794 -1.5235 98° East 338 389 14,100 -900 Descending FlightAware ADS-B
02:00AM 51.4742 -1.4503 96° East 318 366 14,000 -120 Descending FlightAware ADS-B
02:01AM 51.4698 -1.3908 97° East 294 338 14,000  Level FlightAware ADS-B
02:01AM 51.4666 -1.3455 96° East 290 334 14,000  Level FlightAware ADS-B
02:01AM 51.4586 -1.2890 103° East 289 333 14,000  Level FlightAware ADS-B
02:02AM 51.4473 -1.2235 105° East 290 334 14,000 -300 Level FlightAware ADS-B
02:02AM 51.4360 -1.1603 106° East 287 330 13,700 -900 Descending FlightAware ADS-B
02:03AM 51.4248 -1.0983 106° East 283 326 13,100 -720 Descending FlightAware ADS-B
02:03AM 51.4136 -1.0369 106° East 283 326 13,000 -300 Descending FlightAware ADS-B
02:04AM 51.4026 -0.9761 106° East 282 325 12,800 -840 Descending FlightAware ADS-B
02:04AM 51.3916 -0.9157 106° East 281 323 12,200 -900 Descending FlightAware ADS-B
02:05AM 51.3806 -0.8553 106° East 279 321 11,900 -900 Descending FlightAware ADS-B
02:06AM 51.3693 -0.7935 106° East 276 318 11,300 -900 Descending FlightAware ADS-B
02:06AM 51.3583 -0.7341 107° East 274 315 11,000 -300 Descending FlightAware ADS-B
02:07AM 51.3474 -0.6752 106° East 277 319 11,000 -540 Level FlightAware ADS-B
02:07AM 51.3365 -0.6163 106° East 274 315 10,500 -1,020 Descending FlightAware ADS-B
02:08AM 51.3256 -0.5579 107° East 274 315 10,000 -540 Descending FlightAware ADS-B
02:08AM 51.3147 -0.4990 106° East 271 312 10,000  Level FlightAware ADS-B
02:08AM 51.3074 -0.4579 106° East 271 312 10,000  Level FlightAware ADS-B
02:09AM 51.3054 -0.4382 99° East 272 313 10,000  Level FlightAware ADS-B
02:09AM 51.3048 -0.4120 92° East 274 315 10,000  Level FlightAware ADS-B
02:09AM 51.3042 -0.3631 91° East 271 312 10,000  Level FlightAware ADS-B
02:10AM 51.3035 -0.3236 92° East 270 311 10,000  Level FlightAware ADS-B
02:10AM 51.3025 -0.3134 99° East 269 310 10,000  Level FlightAware ADS-B
02:10AM 51.3003 -0.3030 109° East 267 307 10,000  Level FlightAware ADS-B
02:10AM 51.2980 -0.2962 118° Southeast 265 305 10,000  Level FlightAware ADS-B
02:10AM 51.2929 -0.2853 127° Southeast 263 303 10,000  Level FlightAware ADS-B
02:10AM 51.2892 -0.2794 135° Southeast 260 299 10,000  Level FlightAware ADS-B
02:10AM 51.2840 -0.2734 144° Southeast 255 293 10,000  Level FlightAware ADS-B
02:10AM 51.2801 -0.2699 151° Southeast 253 291 10,000  Level FlightAware ADS-B
02:10AM 51.2764 -0.2673 156° South 252 290 10,000  Level FlightAware ADS-B
02:10AM 51.2659 -0.2636 167° South 247 284 10,000  Level FlightAware ADS-B
02:10AM 51.2567 -0.2641 182° South 244 281 10,000  Level FlightAware ADS-B
02:11AM 51.2455 -0.2691 195° South 241 277 10,000  Level FlightAware ADS-B
02:11AM 51.2404 -0.2733 207° Southwest 241 277 10,000  Level FlightAware ADS-B
02:11AM 51.2362 -0.2782 216° Southwest 241 277 10,000  Level FlightAware ADS-B
02:11AM 51.2282 -0.2920 227° Southwest 243 280 10,000  Level FlightAware ADS-B
02:11AM 51.2253 -0.3000 240° Southwest 245 282 10,000  Level FlightAware ADS-B
02:11AM 51.2237 -0.3059 247° West 246 283 10,000  Level FlightAware ADS-B
02:11AM 51.2218 -0.3161 253° West 249 287 10,000  Level FlightAware ADS-B
02:11AM 51.2211 -0.3233 261° West 249 287 10,000  Level FlightAware ADS-B
02:11AM 51.2210 -0.3343 269° West 251 289 10,000  Level FlightAware ADS-B
02:11AM 51.2216 -0.3409 278° West 253 291 10,000  Level FlightAware ADS-B
02:12AM 51.2225 -0.3471 283° West 255 293 10,000  Level FlightAware ADS-B
02:12AM 51.2238 -0.3536 288° West 257 296 10,000  Level FlightAware ADS-B
02:12AM 51.2285 -0.3674 299° West 256 295 10,000  Level FlightAware ADS-B
02:12AM 51.2334 -0.3767 310° West 258 297 10,000  Level FlightAware ADS-B
02:12AM 51.2379 -0.3829 319° Northwest 260 299 10,000  Level FlightAware ADS-B
02:12AM 51.2447 -0.3900 327° Northwest 265 305 10,000  Level FlightAware ADS-B
02:12AM 51.2619 -0.4079 327° Northwest 268 308 10,000 -480 Level FlightAware ADS-B
02:12AM 51.2736 -0.4199 327° Northwest 271 312 9,800 -1,020 Descending FlightAware ADS-B
02:13AM 51.2882 -0.4340 329° Northwest 271 312 9,600 -1,080 Descending FlightAware ADS-B
02:13AM 51.3050 -0.4496 330° Northwest 268 308 9,300 -1,200 Descending FlightAware ADS-B
02:13AM 51.3151 -0.4563 337° Northwest 268 308 9,100 -1,320 Descending FlightAware ADS-B
02:13AM 51.3219 -0.4584 349° North 269 310 9,000 -1,380 Descending FlightAware ADS-B
02:13AM 51.3268 -0.4591 355° North 272 313 8,900 -1,380 Descending FlightAware ADS-B
02:13AM 51.3326 -0.4595 358° North 273 314 8,800 -1,440 Descending FlightAware ADS-B
02:13AM 51.3437 -0.4596 360° North 275 316 8,600 -1,500 Descending FlightAware ADS-B
02:14AM 51.3535 -0.4597 360° North 276 318 8,400 -1,320 Descending FlightAware ADS-B
02:14AM 51.3728 -0.4599 360° North 275 316 8,100 -900 Descending FlightAware ADS-B
02:14AM 51.3890 -0.4601 359° North 273 314 8,000 -240 Descending FlightAware ADS-B
02:14AM 51.4085 -0.4603 360° North 270 311 8,000  Level FlightAware ADS-B
02:14AM 51.4142 -0.4596 North 268 308 8,000  Level FlightAware ADS-B
02:14AM 51.4184 -0.4585 North 268 308 8,000  Level FlightAware ADS-B
02:15AM 51.4225 -0.4566 16° North 269 310 8,000  Level FlightAware ADS-B
02:15AM 51.4276 -0.4534 21° North 271 312 8,000  Level FlightAware ADS-B
02:15AM 51.4315 -0.4500 29° Northeast 272 313 8,000  Level FlightAware ADS-B
02:15AM 51.4367 -0.4439 36° Northeast 272 313 8,000  Level FlightAware ADS-B
02:15AM 51.4400 -0.4386 45° Northeast 273 314 8,000  Level FlightAware ADS-B
02:15AM 51.4434 -0.4318 51° Northeast 272 313 8,000  Level FlightAware ADS-B
02:15AM 51.4459 -0.4250 59° Northeast 272 313 8,000  Level FlightAware ADS-B
02:15AM 51.4489 -0.4134 68° East 270 311 8,000  Level FlightAware ADS-B
02:15AM 51.4504 -0.4026 77° East 267 307 8,000  Level FlightAware ADS-B
02:15AM 51.4506 -0.3947 88° East 263 303 8,000  Level FlightAware ADS-B
02:15AM 51.4498 -0.3837 97° East 260 299 8,000 -420 Level FlightAware ADS-B
02:15AM 51.4460 -0.3669 110° East 258 297 7,900 -900 Descending FlightAware ADS-B
02:16AM 51.4430 -0.3597 124° Southeast 257 296 7,800 -1,380 Descending FlightAware ADS-B
02:16AM 51.4390 -0.3525 132° Southeast 255 293 7,700 -1,380 Descending FlightAware ADS-B
02:16AM 51.4358 -0.3479 138° Southeast 255 293 7,600 -780 Descending FlightAware ADS-B
02:16AM 51.4317 -0.3426 141° Southeast 256 295 7,600 -900 Level FlightAware ADS-B
02:16AM 51.4165 -0.3252 145° Southeast 252 290 7,300 -780 Descending FlightAware ADS-B
02:16AM 51.4027 -0.3090 144° Southeast 247 284 7,200 -660 Descending FlightAware ADS-B
02:16AM 51.3991 -0.3042 140° Southeast 249 287 7,100 -1,380 Descending FlightAware ADS-B
02:16AM 51.3952 -0.2979 135° Southeast 251 289 7,000 -780 Descending FlightAware ADS-B
02:16AM 51.3928 -0.2929 128° Southeast 252 290 7,000  Level FlightAware ADS-B
02:17AM 51.3910 -0.2882 121° Southeast 253 291 7,000  Level FlightAware ADS-B
02:17AM 51.3893 -0.2826 116° Southeast 254 292 7,000  Level FlightAware ADS-B
02:17AM 51.3874 -0.2724 107° East 258 297 7,000  Level FlightAware ADS-B
02:17AM 51.3866 -0.2605 96° East 261 300 7,000 -540 Level FlightAware ADS-B
02:17AM 51.3868 -0.2508 88° East 263 303 6,900 -1,020 Descending FlightAware ADS-B
02:17AM 51.3877 -0.2360 84° East 265 305 6,800 -840 Descending FlightAware ADS-B
02:17AM 51.3898 -0.2057 84° East 266 306 6,600 -780 Descending FlightAware ADS-B
02:18AM 51.3920 -0.1739 84° East 263 303 6,400 -960 Descending FlightAware ADS-B
02:18AM 51.3940 -0.1439 84° East 263 303 6,100 -960 Descending FlightAware ADS-B
02:18AM 51.3961 -0.1131 84° East 264 304 5,900 -780 Descending FlightAware ADS-B
02:18AM 51.3979 -0.0840 84° East 264 304 5,700 -1,020 Descending FlightAware ADS-B
02:19AM 51.3998 -0.0544 84° East 261 300 5,400 -900 Descending FlightAware ADS-B
02:19AM 51.4027 -0.0076 84° East 255 293 5,100 -840 Descending FlightAware ADS-B
02:19AM 51.4045 0.0134 82° East 249 287 4,900 -900 Descending FlightAware ADS-B
02:19AM 51.4090 0.0304 67° East 247 284 4,800 -900 Descending FlightAware ADS-B
02:19AM 51.4117 0.0362 53° Northeast 245 282 4,700 -780 Descending FlightAware ADS-B
02:20AM 51.4374 0.0531 22° Northeast 231 266 4,400 -720 Descending FlightAware ADS-B
02:20AM 51.4441 0.0503 346° North 226 260 4,300 -720 Descending FlightAware ADS-B
02:20AM 51.4568 0.0315 317° Northwest 197 227 4,100 -480 Descending FlightAware ADS-B
02:20AM 51.4591 0.0241 296° West 187 215 4,100 -360 Level FlightAware ADS-B
02:21AM 51.4634 0.0085 294° West 184 212 4,000 -360 Descending FlightAware ADS-B
02:21AM 51.4645 0.0005 282° West 180 207 4,000  Level FlightAware ADS-B
02:21AM 51.4648 -0.0063 274° West 179 206 4,000 -300 Level FlightAware ADS-B
02:21AM 51.4652 -0.0299 272° West 178 205 3,900 -180 Descending FlightAware ADS-B
02:21AM 51.4654 -0.0526 271° West 177 204 3,900  Level FlightAware ADS-B
02:22AM 51.4654 -0.0738 270° West 177 204 3,900  Level FlightAware ADS-B
02:22AM 51.4655 -0.0963 270° West 177 204 3,900  Level FlightAware ADS-B
02:22AM 51.4655 -0.1188 270° West 178 205 3,900 -600 Level FlightAware ADS-B
02:22AM 51.4655 -0.1396 270° West 181 208 3,600 -1,080 Descending FlightAware ADS-B
02:23AM 51.4655 -0.1638 270° West 178 205 3,300 -1,080 Descending FlightAware ADS-B
02:23AM 51.4654 -0.1842 270° West 175 201 3,000 -960 Descending FlightAware ADS-B
02:23AM 51.4654 -0.2055 270° West 174 200 2,800 -960 Descending FlightAware ADS-B
02:24AM 51.4654 -0.2269 270° West 175 201 2,500 -1,140 Descending FlightAware ADS-B
02:24AM 51.4654 -0.2479 270° West 175 201 2,200 -960 Descending FlightAware ADS-B
02:24AM 51.4654 -0.2692 270° West 172 198 2,000 -960 Descending FlightAware ADS-B
02:25AM 51.4652 -0.3121 270° West 164 189 1,400 -900 Descending FlightAware UK
02:25AM 51.4650 -0.3180 270° West 155 178 1,400 -600 Level FlightAware
02:25AM 51.4650 -0.3460 270° West 151 174 1,100 -780 Descending FlightAware
02:26AM 51.4650 -0.3870 270° West 146 168 600 -840 Descending FlightAware
02:26AM 51.4650 -0.4020 270° West 147 169 400 -900 Descending FlightAware
02:27AM 51.4650 -0.4300 270° West 148 170 -960 Descending FlightAware
02:27AM 51.4650 -0.4610 270° West 149 171  Level FlightAware